sensor_id;sensor_type;location;lat;lon;timestamp;temperature;humidity
7317;DHT22;3699;51.462;6.696;2024-01-06T00:02:00;7.90;99.90
7317;DHT22;3699;51.462;6.696;2024-01-06T00:04:27;7.70;99.90
7317;DHT22;3699;51.462;6.696;2024-01-06T00:06:54;7.90;99.90
7317;DHT22;3699;51.462;6.696;2024-01-06T00:09:20;7.80;99.90
7317;DHT22;3699;51.462;6.696;2024-01-06T00:11:49;7.90;99.90
7317;DHT22;3699;51.462;6.696;2024-01-06T00:14:15;8.90;99.90
7317;DHT22;3699;51.462;6.696;2024-01-06T00:16:42;8.00;99.90
7317;DHT22;3699;51.462;6.696;2024-01-06T00:19:09;8.00;99.90
7317;DHT22;3699;51.462;6.696;2024-01-06T00:21:35;7.80;99.90
7317;DHT22;3699;51.462;6.696;2024-01-06T00:24:03;8.00;99.90
7317;DHT22;3699;51.462;6.696;2024-01-06T00:26:29;8.00;99.90
7317;DHT22;3699;51.462;6.696;2024-01-06T00:28:57;8.00;99.90
7317;DHT22;3699;51.462;6.696;2024-01-06T00:31:24;8.00;99.90
7317;DHT22;3699;51.462;6.696;2024-01-06T00:33:51;7.90;99.90
7317;DHT22;3699;51.462;6.696;2024-01-06T00:36:18;8.30;99.90
7317;DHT22;3699;51.462;6.696;2024-01-06T00:38:44;9.00;99.90
7317;DHT22;3699;51.462;6.696;2024-01-06T00:41:11;8.00;99.90
7317;DHT22;3699;51.462;6.696;2024-01-06T00:43:38;8.00;99.90
7317;DHT22;3699;51.462;6.696;2024-01-06T00:46:06;8.00;99.90
7317;DHT22;3699;51.462;6.696;2024-01-06T00:48:33;7.90;99.90
7317;DHT22;3699;51.462;6.696;2024-01-06T00:51:00;8.00;99.90
7317;DHT22;3699;51.462;6.696;2024-01-06T00:53:27;8.00;99.90
7317;DHT22;3699;51.462;6.696;2024-01-06T00:55:53;8.00;99.90
7317;DHT22;3699;51.462;6.696;2024-01-06T00:58:20;8.00;99.90
7317;DHT22;3699;51.462;6.696;2024-01-06T01:00:47;8.10;99.90
7317;DHT22;3699;51.462;6.696;2024-01-06T01:03:15;8.20;99.90
7317;DHT22;3699;51.462;6.696;2024-01-06T01:05:42;8.00;99.90
7317;DHT22;3699;51.462;6.696;2024-01-06T01:08:08;8.00;99.90
7317;DHT22;3699;51.462;6.696;2024-01-06T01:10:35;8.20;99.90
7317;DHT22;3699;51.462;6.696;2024-01-06T01:13:02;8.10;99.90
7317;DHT22;3699;51.462;6.696;2024-01-06T01:15:29;8.10;99.90
7317;DHT22;3699;51.462;6.696;2024-01-06T01:17:55;8.10;99.90
7317;DHT22;3699;51.462;6.696;2024-01-06T01:20:23;8.10;99.90
7317;DHT22;3699;51.462;6.696;2024-01-06T01:22:50;8.10;99.90
7317;DHT22;3699;51.462;6.696;2024-01-06T01:25:17;8.20;99.90
7317;DHT22;3699;51.462;6.696;2024-01-06T01:27:43;8.00;99.90
7317;DHT22;3699;51.462;6.696;2024-01-06T01:30:11;8.10;99.90
7317;DHT22;3699;51.462;6.696;2024-01-06T01:32:39;8.20;99.90
7317;DHT22;3699;51.462;6.696;2024-01-06T01:35:06;8.90;99.90
7317;DHT22;3699;51.462;6.696;2024-01-06T01:37:34;8.20;99.90
7317;DHT22;3699;51.462;6.696;2024-01-06T01:40:01;7.90;99.90
7317;DHT22;3699;51.462;6.696;2024-01-06T01:42:28;8.20;99.90
7317;DHT22;3699;51.462;6.696;2024-01-06T01:44:55;8.10;99.90
7317;DHT22;3699;51.462;6.696;2024-01-06T01:47:21;8.10;99.90
7317;DHT22;3699;51.462;6.696;2024-01-06T01:49:48;8.10;99.90
7317;DHT22;3699;51.462;6.696;2024-01-06T01:52:16;8.10;99.90
7317;DHT22;3699;51.462;6.696;2024-01-06T01:54:45;8.10;99.90
7317;DHT22;3699;51.462;6.696;2024-01-06T01:57:13;8.10;99.90
7317;DHT22;3699;51.462;6.696;2024-01-06T01:59:40;8.10;99.90
7317;DHT22;3699;51.462;6.696;2024-01-06T02:02:08;8.10;99.90
7317;DHT22;3699;51.462;6.696;2024-01-06T02:04:35;8.50;99.90
7317;DHT22;3699;51.462;6.696;2024-01-06T02:07:02;8.10;99.90
7317;DHT22;3699;51.462;6.696;2024-01-06T02:09:28;8.20;99.90
7317;DHT22;3699;51.462;6.696;2024-01-06T02:11:57;8.20;99.90
7317;DHT22;3699;51.462;6.696;2024-01-06T02:14:24;8.10;99.90
7317;DHT22;3699;51.462;6.696;2024-01-06T02:16:51;8.10;99.90
7317;DHT22;3699;51.462;6.696;2024-01-06T02:19:18;8.10;99.90
7317;DHT22;3699;51.462;6.696;2024-01-06T02:21:49;8.70;99.90
7317;DHT22;3699;51.462;6.696;2024-01-06T02:24:15;8.10;99.90
7317;DHT22;3699;51.462;6.696;2024-01-06T02:26:42;8.20;99.90
7317;DHT22;3699;51.462;6.696;2024-01-06T02:29:09;8.10;99.90
7317;DHT22;3699;51.462;6.696;2024-01-06T02:31:35;8.60;99.90
7317;DHT22;3699;51.462;6.696;2024-01-06T02:34:02;8.20;99.90
7317;DHT22;3699;51.462;6.696;2024-01-06T02:36:29;8.10;99.90
7317;DHT22;3699;51.462;6.696;2024-01-06T02:38:57;8.20;99.90
7317;DHT22;3699;51.462;6.696;2024-01-06T02:41:24;8.20;99.90
7317;DHT22;3699;51.462;6.696;2024-01-06T02:43:50;9.30;99.90
7317;DHT22;3699;51.462;6.696;2024-01-06T02:46:17;8.00;99.90
7317;DHT22;3699;51.462;6.696;2024-01-06T02:48:44;7.90;99.90
7317;DHT22;3699;51.462;6.696;2024-01-06T02:51:11;8.00;99.90
7317;DHT22;3699;51.462;6.696;2024-01-06T02:53:38;7.90;99.90
7317;DHT22;3699;51.462;6.696;2024-01-06T02:56:09;7.80;99.90
7317;DHT22;3699;51.462;6.696;2024-01-06T02:58:36;8.10;99.90
7317;DHT22;3699;51.462;6.696;2024-01-06T03:01:03;7.80;99.90
7317;DHT22;3699;51.462;6.696;2024-01-06T03:03:30;7.70;99.90
7317;DHT22;3699;51.462;6.696;2024-01-06T03:05:57;7.60;99.90
7317;DHT22;3699;51.462;6.696;2024-01-06T03:08:23;7.40;99.90
7317;DHT22;3699;51.462;6.696;2024-01-06T03:10:50;7.50;99.90
7317;DHT22;3699;51.462;6.696;2024-01-06T03:13:18;7.50;99.90
7317;DHT22;3699;51.462;6.696;2024-01-06T03:15:45;7.40;99.90
7317;DHT22;3699;51.462;6.696;2024-01-06T03:18:12;7.40;99.90
7317;DHT22;3699;51.462;6.696;2024-01-06T03:20:38;8.00;99.90
7317;DHT22;3699;51.462;6.696;2024-01-06T03:23:05;7.30;99.90
7317;DHT22;3699;51.462;6.696;2024-01-06T03:25:32;7.30;99.90
7317;DHT22;3699;51.462;6.696;2024-01-06T03:27:59;7.20;99.90
7317;DHT22;3699;51.462;6.696;2024-01-06T03:30:27;7.20;99.90
7317;DHT22;3699;51.462;6.696;2024-01-06T03:32:53;7.30;99.90
7317;DHT22;3699;51.462;6.696;2024-01-06T03:35:20;7.20;99.90
7317;DHT22;3699;51.462;6.696;2024-01-06T03:37:47;7.20;99.90
7317;DHT22;3699;51.462;6.696;2024-01-06T03:40:14;7.20;99.90
7317;DHT22;3699;51.462;6.696;2024-01-06T03:42:40;7.30;99.90
7317;DHT22;3699;51.462;6.696;2024-01-06T03:45:08;7.20;99.90
7317;DHT22;3699;51.462;6.696;2024-01-06T03:47:36;7.30;99.90
7317;DHT22;3699;51.462;6.696;2024-01-06T03:50:03;7.20;99.90
7317;DHT22;3699;51.462;6.696;2024-01-06T03:52:30;7.30;99.90
7317;DHT22;3699;51.462;6.696;2024-01-06T03:54:56;7.20;99.90
7317;DHT22;3699;51.462;6.696;2024-01-06T03:57:23;7.20;99.90
7317;DHT22;3699;51.462;6.696;2024-01-06T03:59:50;7.20;99.90
7317;DHT22;3699;51.462;6.696;2024-01-06T04:02:16;7.20;99.90
7317;DHT22;3699;51.462;6.696;2024-01-06T04:04:44;7.10;99.90
7317;DHT22;3699;51.462;6.696;2024-01-06T04:07:12;7.10;99.90
7317;DHT22;3699;51.462;6.696;2024-01-06T04:09:42;7.10;99.90
7317;DHT22;3699;51.462;6.696;2024-01-06T04:12:08;7.50;99.90
7317;DHT22;3699;51.462;6.696;2024-01-06T04:14:35;7.10;99.90
7317;DHT22;3699;51.462;6.696;2024-01-06T04:17:02;7.10;99.90
7317;DHT22;3699;51.462;6.696;2024-01-06T04:19:29;7.10;99.90
7317;DHT22;3699;51.462;6.696;2024-01-06T04:21:57;7.20;99.90
7317;DHT22;3699;51.462;6.696;2024-01-06T04:24:23;7.00;99.90
7317;DHT22;3699;51.462;6.696;2024-01-06T04:26:50;7.00;99.90
7317;DHT22;3699;51.462;6.696;2024-01-06T04:29:17;7.00;99.90
7317;DHT22;3699;51.462;6.696;2024-01-06T04:31:44;7.00;99.90
7317;DHT22;3699;51.462;6.696;2024-01-06T04:34:10;6.90;99.90
7317;DHT22;3699;51.462;6.696;2024-01-06T04:36:37;6.90;99.90
7317;DHT22;3699;51.462;6.696;2024-01-06T04:39:05;7.00;99.90
7317;DHT22;3699;51.462;6.696;2024-01-06T04:41:32;6.90;99.90
7317;DHT22;3699;51.462;6.696;2024-01-06T04:43:58;6.90;99.90
7317;DHT22;3699;51.462;6.696;2024-01-06T04:46:25;6.90;99.90
7317;DHT22;3699;51.462;6.696;2024-01-06T04:48:52;7.20;99.90
7317;DHT22;3699;51.462;6.696;2024-01-06T04:51:19;6.90;99.90
7317;DHT22;3699;51.462;6.696;2024-01-06T04:53:45;6.90;99.90
7317;DHT22;3699;51.462;6.696;2024-01-06T04:56:13;6.90;99.90
7317;DHT22;3699;51.462;6.696;2024-01-06T04:58:40;6.90;99.90
7317;DHT22;3699;51.462;6.696;2024-01-06T05:01:07;6.90;99.90
7317;DHT22;3699;51.462;6.696;2024-01-06T05:03:34;6.90;99.90
7317;DHT22;3699;51.462;6.696;2024-01-06T05:06:01;6.80;99.90
7317;DHT22;3699;51.462;6.696;2024-01-06T05:08:27;6.90;99.90
7317;DHT22;3699;51.462;6.696;2024-01-06T05:10:56;6.90;99.90
7317;DHT22;3699;51.462;6.696;2024-01-06T05:13:24;7.00;99.90
7317;DHT22;3699;51.462;6.696;2024-01-06T05:15:51;6.80;99.90
7317;DHT22;3699;51.462;6.696;2024-01-06T05:18:18;6.80;99.90
7317;DHT22;3699;51.462;6.696;2024-01-06T05:20:44;6.70;99.90
7317;DHT22;3699;51.462;6.696;2024-01-06T05:23:11;6.80;99.90
7317;DHT22;3699;51.462;6.696;2024-01-06T05:25:38;6.80;99.90
7317;DHT22;3699;51.462;6.696;2024-01-06T05:28:05;6.80;99.90
7317;DHT22;3699;51.462;6.696;2024-01-06T05:30:33;6.90;99.90
7317;DHT22;3699;51.462;6.696;2024-01-06T05:33:00;6.80;99.90
7317;DHT22;3699;51.462;6.696;2024-01-06T05:35:27;6.70;99.90
7317;DHT22;3699;51.462;6.696;2024-01-06T05:37:54;6.80;99.90
7317;DHT22;3699;51.462;6.696;2024-01-06T05:40:20;6.80;99.90
7317;DHT22;3699;51.462;6.696;2024-01-06T05:42:47;7.00;99.90
7317;DHT22;3699;51.462;6.696;2024-01-06T05:45:14;6.90;99.90
7317;DHT22;3699;51.462;6.696;2024-01-06T05:47:42;6.80;99.90
7317;DHT22;3699;51.462;6.696;2024-01-06T05:50:09;6.80;99.90
7317;DHT22;3699;51.462;6.696;2024-01-06T05:52:36;6.80;99.90
7317;DHT22;3699;51.462;6.696;2024-01-06T05:55:04;6.80;99.90
7317;DHT22;3699;51.462;6.696;2024-01-06T05:57:31;6.90;99.90
7317;DHT22;3699;51.462;6.696;2024-01-06T05:59:59;6.80;99.90
7317;DHT22;3699;51.462;6.696;2024-01-06T06:02:25;6.80;99.90
7317;DHT22;3699;51.462;6.696;2024-01-06T06:04:53;6.80;99.90
7317;DHT22;3699;51.462;6.696;2024-01-06T06:07:20;6.80;99.90
7317;DHT22;3699;51.462;6.696;2024-01-06T06:09:47;7.00;99.90
7317;DHT22;3699;51.462;6.696;2024-01-06T06:12:14;7.00;99.90
7317;DHT22;3699;51.462;6.696;2024-01-06T06:14:40;6.70;99.90
7317;DHT22;3699;51.462;6.696;2024-01-06T06:17:07;6.70;99.90
7317;DHT22;3699;51.462;6.696;2024-01-06T06:19:34;6.80;99.90
7317;DHT22;3699;51.462;6.696;2024-01-06T06:22:02;6.70;99.90
7317;DHT22;3699;51.462;6.696;2024-01-06T06:24:29;6.70;99.90
7317;DHT22;3699;51.462;6.696;2024-01-06T06:26:55;6.70;99.90
7317;DHT22;3699;51.462;6.696;2024-01-06T06:29:22;6.70;99.90
7317;DHT22;3699;51.462;6.696;2024-01-06T06:31:49;6.60;99.90
7317;DHT22;3699;51.462;6.696;2024-01-06T06:34:16;6.60;99.90
7317;DHT22;3699;51.462;6.696;2024-01-06T06:36:43;6.50;99.90
7317;DHT22;3699;51.462;6.696;2024-01-06T06:39:11;6.50;99.90
7317;DHT22;3699;51.462;6.696;2024-01-06T06:41:37;6.40;99.90
7317;DHT22;3699;51.462;6.696;2024-01-06T06:44:04;6.50;99.90
7317;DHT22;3699;51.462;6.696;2024-01-06T06:46:31;6.40;99.90
7317;DHT22;3699;51.462;6.696;2024-01-06T06:48:58;6.40;99.90
7317;DHT22;3699;51.462;6.696;2024-01-06T06:51:24;6.40;99.90
7317;DHT22;3699;51.462;6.696;2024-01-06T06:53:52;6.40;99.90
7317;DHT22;3699;51.462;6.696;2024-01-06T06:56:20;6.40;99.90
7317;DHT22;3699;51.462;6.696;2024-01-06T06:58:47;6.30;99.90
7317;DHT22;3699;51.462;6.696;2024-01-06T07:01:14;6.20;99.90
7317;DHT22;3699;51.462;6.696;2024-01-06T07:03:41;6.30;99.90
7317;DHT22;3699;51.462;6.696;2024-01-06T07:06:08;6.30;99.90
7317;DHT22;3699;51.462;6.696;2024-01-06T07:08:35;6.20;99.90
7317;DHT22;3699;51.462;6.696;2024-01-06T07:11:04;6.20;99.90
7317;DHT22;3699;51.462;6.696;2024-01-06T07:13:32;6.30;99.90
7317;DHT22;3699;51.462;6.696;2024-01-06T07:15:59;6.10;99.90
7317;DHT22;3699;51.462;6.696;2024-01-06T07:18:25;6.20;99.90
7317;DHT22;3699;51.462;6.696;2024-01-06T07:20:52;6.00;99.90
7317;DHT22;3699;51.462;6.696;2024-01-06T07:23:19;6.10;99.90
7317;DHT22;3699;51.462;6.696;2024-01-06T07:25:45;6.10;99.90
7317;DHT22;3699;51.462;6.696;2024-01-06T07:28:12;6.30;99.90
7317;DHT22;3699;51.462;6.696;2024-01-06T07:30:40;6.00;99.90
7317;DHT22;3699;51.462;6.696;2024-01-06T07:33:07;6.10;99.90
7317;DHT22;3699;51.462;6.696;2024-01-06T07:35:34;6.00;99.90
7317;DHT22;3699;51.462;6.696;2024-01-06T07:38:01;6.10;99.90
7317;DHT22;3699;51.462;6.696;2024-01-06T07:40:28;6.00;99.90
7317;DHT22;3699;51.462;6.696;2024-01-06T07:42:54;6.00;99.90
7317;DHT22;3699;51.462;6.696;2024-01-06T07:45:21;6.00;99.90
7317;DHT22;3699;51.462;6.696;2024-01-06T07:47:49;6.00;99.90
7317;DHT22;3699;51.462;6.696;2024-01-06T07:50:16;6.10;99.90
7317;DHT22;3699;51.462;6.696;2024-01-06T07:52:43;6.10;99.90
7317;DHT22;3699;51.462;6.696;2024-01-06T07:55:10;6.00;99.90
7317;DHT22;3699;51.462;6.696;2024-01-06T07:57:36;6.00;99.90
7317;DHT22;3699;51.462;6.696;2024-01-06T08:00:04;6.00;99.90
7317;DHT22;3699;51.462;6.696;2024-01-06T08:02:31;6.60;99.90
7317;DHT22;3699;51.462;6.696;2024-01-06T08:04:59;6.00;99.90
7317;DHT22;3699;51.462;6.696;2024-01-06T08:07:26;6.00;99.90
7317;DHT22;3699;51.462;6.696;2024-01-06T08:09:52;6.00;99.90
7317;DHT22;3699;51.462;6.696;2024-01-06T08:12:19;6.00;99.90
7317;DHT22;3699;51.462;6.696;2024-01-06T08:14:46;6.10;99.90
7317;DHT22;3699;51.462;6.696;2024-01-06T08:17:13;6.00;99.90
7317;DHT22;3699;51.462;6.696;2024-01-06T08:19:39;6.00;99.90
7317;DHT22;3699;51.462;6.696;2024-01-06T08:22:08;6.00;99.90
7317;DHT22;3699;51.462;6.696;2024-01-06T08:24:35;6.00;99.90
7317;DHT22;3699;51.462;6.696;2024-01-06T08:27:02;6.00;99.90
7317;DHT22;3699;51.462;6.696;2024-01-06T08:29:29;6.10;99.90
7317;DHT22;3699;51.462;6.696;2024-01-06T08:31:55;6.00;99.90
7317;DHT22;3699;51.462;6.696;2024-01-06T08:34:22;5.90;99.90
7317;DHT22;3699;51.462;6.696;2024-01-06T08:36:49;5.30;99.90
7317;DHT22;3699;51.462;6.696;2024-01-06T08:39:17;5.90;99.90
7317;DHT22;3699;51.462;6.696;2024-01-06T08:41:44;5.90;99.90
7317;DHT22;3699;51.462;6.696;2024-01-06T08:44:12;6.00;99.90
7317;DHT22;3699;51.462;6.696;2024-01-06T08:46:38;6.00;99.90
7317;DHT22;3699;51.462;6.696;2024-01-06T08:49:05;5.90;99.90
7317;DHT22;3699;51.462;6.696;2024-01-06T08:51:32;5.80;99.90
7317;DHT22;3699;51.462;6.696;2024-01-06T08:53:59;5.80;99.90
7317;DHT22;3699;51.462;6.696;2024-01-06T08:56:27;5.70;99.90
7317;DHT22;3699;51.462;6.696;2024-01-06T08:58:54;5.70;99.90
7317;DHT22;3699;51.462;6.696;2024-01-06T09:01:22;5.70;99.90
7317;DHT22;3699;51.462;6.696;2024-01-06T09:03:48;5.50;99.90
7317;DHT22;3699;51.462;6.696;2024-01-06T09:06:15;5.60;99.90
7317;DHT22;3699;51.462;6.696;2024-01-06T09:08:42;5.60;99.90
7317;DHT22;3699;51.462;6.696;2024-01-06T09:11:09;5.60;99.90
7317;DHT22;3699;51.462;6.696;2024-01-06T09:13:37;5.50;99.90
7317;DHT22;3699;51.462;6.696;2024-01-06T09:16:04;5.50;99.90
7317;DHT22;3699;51.462;6.696;2024-01-06T09:21:53;5.50;99.90
7317;DHT22;3699;51.462;6.696;2024-01-06T09:24:20;5.50;99.90
7317;DHT22;3699;51.462;6.696;2024-01-06T09:26:46;5.50;99.90
7317;DHT22;3699;51.462;6.696;2024-01-06T09:29:16;5.50;99.90
7317;DHT22;3699;51.462;6.696;2024-01-06T09:31:43;5.60;99.90
7317;DHT22;3699;51.462;6.696;2024-01-06T09:34:10;5.60;99.90
7317;DHT22;3699;51.462;6.696;2024-01-06T09:36:38;5.60;99.90
7317;DHT22;3699;51.462;6.696;2024-01-06T09:39:04;5.70;99.90
7317;DHT22;3699;51.462;6.696;2024-01-06T09:41:33;5.70;99.90
7317;DHT22;3699;51.462;6.696;2024-01-06T09:44:00;5.70;99.90
7317;DHT22;3699;51.462;6.696;2024-01-06T09:46:29;5.70;99.90
7317;DHT22;3699;51.462;6.696;2024-01-06T09:48:56;5.70;99.90
7317;DHT22;3699;51.462;6.696;2024-01-06T09:51:24;5.70;99.90
7317;DHT22;3699;51.462;6.696;2024-01-06T09:53:57;5.70;99.90
7317;DHT22;3699;51.462;6.696;2024-01-06T09:56:24;5.70;99.90
7317;DHT22;3699;51.462;6.696;2024-01-06T09:58:51;5.70;99.90
7317;DHT22;3699;51.462;6.696;2024-01-06T10:01:18;5.70;99.90
7317;DHT22;3699;51.462;6.696;2024-01-06T10:03:47;5.80;99.90
7317;DHT22;3699;51.462;6.696;2024-01-06T10:06:14;5.70;99.90
7317;DHT22;3699;51.462;6.696;2024-01-06T10:08:42;5.70;99.90
7317;DHT22;3699;51.462;6.696;2024-01-06T10:11:09;5.70;99.90
7317;DHT22;3699;51.462;6.696;2024-01-06T10:13:36;5.70;99.90
7317;DHT22;3699;51.462;6.696;2024-01-06T10:16:04;5.70;99.90
7317;DHT22;3699;51.462;6.696;2024-01-06T10:18:31;5.70;99.90
7317;DHT22;3699;51.462;6.696;2024-01-06T10:20:59;5.70;99.90
7317;DHT22;3699;51.462;6.696;2024-01-06T10:23:27;5.70;99.90
7317;DHT22;3699;51.462;6.696;2024-01-06T10:25:54;5.70;99.90
7317;DHT22;3699;51.462;6.696;2024-01-06T10:28:21;5.70;99.90
7317;DHT22;3699;51.462;6.696;2024-01-06T10:30:49;5.70;99.90
7317;DHT22;3699;51.462;6.696;2024-01-06T10:33:19;5.60;99.90
7317;DHT22;3699;51.462;6.696;2024-01-06T10:35:46;5.60;99.90
7317;DHT22;3699;51.462;6.696;2024-01-06T10:38:15;5.60;99.90
7317;DHT22;3699;51.462;6.696;2024-01-06T10:40:56;3.70;99.90
7317;DHT22;3699;51.462;6.696;2024-01-06T10:43:25;5.50;99.90
7317;DHT22;3699;51.462;6.696;2024-01-06T10:45:53;5.50;99.90
7317;DHT22;3699;51.462;6.696;2024-01-06T10:48:24;5.50;99.90
7317;DHT22;3699;51.462;6.696;2024-01-06T10:50:52;5.50;99.90
7317;DHT22;3699;51.462;6.696;2024-01-06T10:53:22;5.40;99.90
7317;DHT22;3699;51.462;6.696;2024-01-06T10:55:52;5.40;99.90
7317;DHT22;3699;51.462;6.696;2024-01-06T10:58:19;5.30;99.90
7317;DHT22;3699;51.462;6.696;2024-01-06T11:00:47;5.30;99.90
7317;DHT22;3699;51.462;6.696;2024-01-06T11:03:14;5.30;99.90
7317;DHT22;3699;51.462;6.696;2024-01-06T11:05:41;5.30;99.90
7317;DHT22;3699;51.462;6.696;2024-01-06T11:08:08;5.20;99.90
7317;DHT22;3699;51.462;6.696;2024-01-06T11:10:37;5.20;99.90
7317;DHT22;3699;51.462;6.696;2024-01-06T11:13:09;5.20;99.90
7317;DHT22;3699;51.462;6.696;2024-01-06T11:15:44;5.10;99.90
7317;DHT22;3699;51.462;6.696;2024-01-06T11:18:33;5.10;99.90
7317;DHT22;3699;51.462;6.696;2024-01-06T11:21:18;5.10;99.90
7317;DHT22;3699;51.462;6.696;2024-01-06T11:24:14;5.00;99.90
7317;DHT22;3699;51.462;6.696;2024-01-06T11:26:44;5.00;99.90
7317;DHT22;3699;51.462;6.696;2024-01-06T11:29:11;5.00;99.90
7317;DHT22;3699;51.462;6.696;2024-01-06T11:31:38;4.90;99.90
7317;DHT22;3699;51.462;6.696;2024-01-06T11:34:15;4.90;99.90
7317;DHT22;3699;51.462;6.696;2024-01-06T11:36:44;4.90;99.90
7317;DHT22;3699;51.462;6.696;2024-01-06T11:39:35;5.00;99.90
7317;DHT22;3699;51.462;6.696;2024-01-06T11:42:05;5.00;99.90
7317;DHT22;3699;51.462;6.696;2024-01-06T11:44:34;5.00;99.90
7317;DHT22;3699;51.462;6.696;2024-01-06T11:47:01;5.00;99.90
7317;DHT22;3699;51.462;6.696;2024-01-06T11:49:28;5.00;99.90
7317;DHT22;3699;51.462;6.696;2024-01-06T11:51:56;5.00;99.90
7317;DHT22;3699;51.462;6.696;2024-01-06T11:54:23;5.00;99.90
7317;DHT22;3699;51.462;6.696;2024-01-06T11:56:50;5.00;99.90
7317;DHT22;3699;51.462;6.696;2024-01-06T11:59:20;5.00;99.90
7317;DHT22;3699;51.462;6.696;2024-01-06T12:01:46;5.00;99.90
7317;DHT22;3699;51.462;6.696;2024-01-06T12:04:14;5.00;99.90
7317;DHT22;3699;51.462;6.696;2024-01-06T12:06:41;5.00;99.90
7317;DHT22;3699;51.462;6.696;2024-01-06T12:09:10;5.00;99.90
7317;DHT22;3699;51.462;6.696;2024-01-06T12:11:39;5.00;99.90
7317;DHT22;3699;51.462;6.696;2024-01-06T12:14:07;5.00;99.90
7317;DHT22;3699;51.462;6.696;2024-01-06T12:16:36;5.00;99.90
7317;DHT22;3699;51.462;6.696;2024-01-06T12:19:03;5.00;99.90
7317;DHT22;3699;51.462;6.696;2024-01-06T12:21:30;5.00;99.90
7317;DHT22;3699;51.462;6.696;2024-01-06T12:24:12;5.00;99.90
7317;DHT22;3699;51.462;6.696;2024-01-06T12:26:40;5.40;99.90
7317;DHT22;3699;51.462;6.696;2024-01-06T12:29:07;5.00;99.90
7317;DHT22;3699;51.462;6.696;2024-01-06T12:31:37;5.10;99.90
7317;DHT22;3699;51.462;6.696;2024-01-06T12:34:04;5.00;99.90
7317;DHT22;3699;51.462;6.696;2024-01-06T12:36:32;5.00;99.90
7317;DHT22;3699;51.462;6.696;2024-01-06T12:38:59;5.00;99.90
7317;DHT22;3699;51.462;6.696;2024-01-06T12:41:27;5.00;99.90
7317;DHT22;3699;51.462;6.696;2024-01-06T12:43:54;5.00;99.90
7317;DHT22;3699;51.462;6.696;2024-01-06T12:46:21;5.00;99.90
7317;DHT22;3699;51.462;6.696;2024-01-06T12:48:49;5.00;99.90
7317;DHT22;3699;51.462;6.696;2024-01-06T12:51:16;4.90;99.90
7317;DHT22;3699;51.462;6.696;2024-01-06T12:53:42;4.90;99.90
7317;DHT22;3699;51.462;6.696;2024-01-06T12:56:10;4.80;99.90
7317;DHT22;3699;51.462;6.696;2024-01-06T12:58:36;4.80;99.90
7317;DHT22;3699;51.462;6.696;2024-01-06T13:01:03;4.80;99.90
7317;DHT22;3699;51.462;6.696;2024-01-06T13:03:30;4.80;99.90
7317;DHT22;3699;51.462;6.696;2024-01-06T13:05:58;4.80;99.90
7317;DHT22;3699;51.462;6.696;2024-01-06T13:08:26;4.80;99.90
7317;DHT22;3699;51.462;6.696;2024-01-06T13:10:53;4.80;99.90
7317;DHT22;3699;51.462;6.696;2024-01-06T13:13:20;4.80;99.90
7317;DHT22;3699;51.462;6.696;2024-01-06T13:16:12;4.80;99.90
7317;DHT22;3699;51.462;6.696;2024-01-06T13:18:39;4.70;99.90
7317;DHT22;3699;51.462;6.696;2024-01-06T13:21:07;4.70;99.90
7317;DHT22;3699;51.462;6.696;2024-01-06T13:23:34;4.60;99.90
7317;DHT22;3699;51.462;6.696;2024-01-06T13:26:01;4.60;99.90
7317;DHT22;3699;51.462;6.696;2024-01-06T13:28:27;4.50;99.90
7317;DHT22;3699;51.462;6.696;2024-01-06T13:30:54;4.60;99.90
7317;DHT22;3699;51.462;6.696;2024-01-06T13:33:21;4.50;99.90
7317;DHT22;3699;51.462;6.696;2024-01-06T13:35:48;4.50;99.90
7317;DHT22;3699;51.462;6.696;2024-01-06T13:38:16;4.60;99.90
7317;DHT22;3699;51.462;6.696;2024-01-06T13:40:43;4.60;99.90
7317;DHT22;3699;51.462;6.696;2024-01-06T13:46:07;4.60;99.90
7317;DHT22;3699;51.462;6.696;2024-01-06T13:48:33;4.50;99.90
7317;DHT22;3699;51.462;6.696;2024-01-06T13:51:00;4.50;99.90
7317;DHT22;3699;51.462;6.696;2024-01-06T13:53:28;4.40;99.90
7317;DHT22;3699;51.462;6.696;2024-01-06T13:55:55;4.50;99.90
7317;DHT22;3699;51.462;6.696;2024-01-06T13:58:22;4.50;99.90
7317;DHT22;3699;51.462;6.696;2024-01-06T14:00:48;4.40;99.90
7317;DHT22;3699;51.462;6.696;2024-01-06T14:03:15;4.40;99.90
7317;DHT22;3699;51.462;6.696;2024-01-06T14:05:42;4.40;99.90
7317;DHT22;3699;51.462;6.696;2024-01-06T14:08:09;4.40;99.90
7317;DHT22;3699;51.462;6.696;2024-01-06T14:10:37;4.30;99.90
7317;DHT22;3699;51.462;6.696;2024-01-06T14:13:04;4.30;99.90
7317;DHT22;3699;51.462;6.696;2024-01-06T14:15:33;4.30;99.90
7317;DHT22;3699;51.462;6.696;2024-01-06T14:18:01;3.90;99.90
7317;DHT22;3699;51.462;6.696;2024-01-06T14:20:27;4.20;99.90
7317;DHT22;3699;51.462;6.696;2024-01-06T14:22:54;4.20;99.90
7317;DHT22;3699;51.462;6.696;2024-01-06T14:25:21;4.20;99.90
7317;DHT22;3699;51.462;6.696;2024-01-06T14:27:49;4.20;99.90
7317;DHT22;3699;51.462;6.696;2024-01-06T14:30:16;4.20;99.90
7317;DHT22;3699;51.462;6.696;2024-01-06T14:32:43;4.20;99.90
7317;DHT22;3699;51.462;6.696;2024-01-06T14:35:09;4.20;99.90
7317;DHT22;3699;51.462;6.696;2024-01-06T14:37:38;4.20;99.90
7317;DHT22;3699;51.462;6.696;2024-01-06T14:40:06;4.20;99.90
7317;DHT22;3699;51.462;6.696;2024-01-06T14:42:33;4.20;99.90
7317;DHT22;3699;51.462;6.696;2024-01-06T14:45:03;4.30;99.90
7317;DHT22;3699;51.462;6.696;2024-01-06T14:47:30;4.20;99.90
7317;DHT22;3699;51.462;6.696;2024-01-06T14:49:57;4.20;99.90
7317;DHT22;3699;51.462;6.696;2024-01-06T14:52:24;4.20;99.90
7317;DHT22;3699;51.462;6.696;2024-01-06T14:54:51;2.60;99.90
7317;DHT22;3699;51.462;6.696;2024-01-06T14:57:18;4.10;99.90
7317;DHT22;3699;51.462;6.696;2024-01-06T14:59:45;4.10;99.90
7317;DHT22;3699;51.462;6.696;2024-01-06T15:02:13;4.10;99.90
7317;DHT22;3699;51.462;6.696;2024-01-06T15:04:39;4.00;99.90
7317;DHT22;3699;51.462;6.696;2024-01-06T15:07:06;4.00;99.90
7317;DHT22;3699;51.462;6.696;2024-01-06T15:09:33;4.00;99.90
7317;DHT22;3699;51.462;6.696;2024-01-06T15:12:00;4.00;99.90
7317;DHT22;3699;51.462;6.696;2024-01-06T15:14:26;4.00;99.90
7317;DHT22;3699;51.462;6.696;2024-01-06T15:16:53;4.00;99.90
7317;DHT22;3699;51.462;6.696;2024-01-06T15:19:21;3.90;99.90
7317;DHT22;3699;51.462;6.696;2024-01-06T15:21:53;4.00;99.90
7317;DHT22;3699;51.462;6.696;2024-01-06T15:24:19;3.90;99.90
7317;DHT22;3699;51.462;6.696;2024-01-06T15:26:48;4.00;99.90
7317;DHT22;3699;51.462;6.696;2024-01-06T15:29:16;4.00;99.90
7317;DHT22;3699;51.462;6.696;2024-01-06T15:31:43;4.00;99.90
7317;DHT22;3699;51.462;6.696;2024-01-06T15:34:10;4.00;99.90
7317;DHT22;3699;51.462;6.696;2024-01-06T15:36:38;4.00;99.90
7317;DHT22;3699;51.462;6.696;2024-01-06T15:39:05;4.00;99.90
7317;DHT22;3699;51.462;6.696;2024-01-06T15:41:31;3.80;99.90
7317;DHT22;3699;51.462;6.696;2024-01-06T15:43:58;4.00;99.90
7317;DHT22;3699;51.462;6.696;2024-01-06T15:46:25;3.70;99.90
7317;DHT22;3699;51.462;6.696;2024-01-06T15:48:52;4.00;99.90
7317;DHT22;3699;51.462;6.696;2024-01-06T15:51:19;4.00;99.90
7317;DHT22;3699;51.462;6.696;2024-01-06T15:53:49;4.00;99.90
7317;DHT22;3699;51.462;6.696;2024-01-06T15:56:16;4.10;99.90
7317;DHT22;3699;51.462;6.696;2024-01-06T15:58:43;4.00;99.90
7317;DHT22;3699;51.462;6.696;2024-01-06T16:01:10;4.00;99.90
7317;DHT22;3699;51.462;6.696;2024-01-06T16:03:37;4.00;99.90
7317;DHT22;3699;51.462;6.696;2024-01-06T16:06:04;4.00;99.90
7317;DHT22;3699;51.462;6.696;2024-01-06T16:08:31;3.90;99.90
7317;DHT22;3699;51.462;6.696;2024-01-06T16:10:59;3.90;99.90
7317;DHT22;3699;51.462;6.696;2024-01-06T16:13:26;3.80;99.90
7317;DHT22;3699;51.462;6.696;2024-01-06T16:15:53;3.80;99.90
7317;DHT22;3699;51.462;6.696;2024-01-06T16:18:20;3.80;99.90
7317;DHT22;3699;51.462;6.696;2024-01-06T16:20:47;3.80;99.90
7317;DHT22;3699;51.462;6.696;2024-01-06T16:23:14;3.80;99.90
7317;DHT22;3699;51.462;6.696;2024-01-06T16:25:43;3.80;99.90